Time;durP1;ratioP1;P1;durP2;ratioP2;P2;SDS_P1;SDS_P2;PMS_P1;PMS_P2;Temp;Humidity;BMP_temperature;BMP_pressure;BME280_temperature;BME280_humidity;BME280_pressure;Samples;Min_cycle;Max_cycle;Signal;HPM_P1;HPM_P2
2021/12/09 00:00:07;;;;;;;10.35;6.37;;;;;;;1.24;96.17;100060.81;1717881;81;21058;-69
2021/12/09 00:02:36;;;;;;;10.30;6.50;;;;;;;1.23;96.12;100053.43;1708264;83;21122;-68
2021/12/09 00:05:04;;;;;;;10.23;6.95;;;;;;;1.24;96.10;100056.34;1707995;83;21117;-69
2021/12/09 00:07:31;;;;;;;9.25;6.75;;;;;;;1.25;96.05;100061.09;1711241;83;21167;-68
2021/12/09 00:09:58;;;;;;;11.05;6.92;;;;;;;1.27;95.98;100066.46;1707719;83;21069;-69
2021/12/09 00:12:27;;;;;;;10.15;6.47;;;;;;;1.28;95.93;100064.63;1708385;81;21069;-69
2021/12/09 00:14:55;;;;;;;10.25;6.62;;;;;;;1.30;95.89;100070.50;1710447;82;21145;-69
2021/12/09 00:17:22;;;;;;;9.23;5.80;;;;;;;1.28;95.82;100077.78;1677384;84;21125;-69
2021/12/09 00:19:49;;;;;;;10.60;6.70;;;;;;;1.26;95.86;100070.12;1731458;81;21124;-69
2021/12/09 00:22:15;;;;;;;10.28;6.92;;;;;;;1.24;95.81;100073.96;1694542;83;21042;-69
2021/12/09 00:24:42;;;;;;;10.30;6.45;;;;;;;1.20;95.79;100074.89;1738647;81;21010;-68
2021/12/09 00:27:08;;;;;;;8.80;5.87;;;;;;;1.18;95.80;100078.22;1715326;81;22274;-68
2021/12/09 00:29:35;;;;;;;9.35;5.95;;;;;;;1.18;95.78;100086.11;1737025;81;21058;-69
2021/12/09 00:32:02;;;;;;;10.68;7.10;;;;;;;1.17;95.75;100086.62;1679818;83;21125;-69
2021/12/09 00:34:35;;;;;;;10.28;6.50;;;;;;;1.17;95.78;100083.99;1674775;84;21523;-69
2021/12/09 00:37:18;;;;;;;9.70;7.03;;;;;;;1.17;95.78;100077.93;1717583;81;21500;-69
2021/12/09 00:39:34;;;;;;;12.18;7.92;;;;;;;1.18;95.82;100086.11;1665647;84;21133;-70
2021/12/09 00:42:01;;;;;;;10.30;6.78;;;;;;;1.21;95.80;100085.70;1651419;85;21131;-69
2021/12/09 00:44:28;;;;;;;10.13;6.80;;;;;;;1.18;95.78;100084.80;1723749;82;22360;-69
2021/12/09 00:46:54;;;;;;;10.90;7.25;;;;;;;1.17;95.78;100087.13;1710649;82;21572;-69
2021/12/09 00:49:21;;;;;;;9.95;6.90;;;;;;;1.16;95.77;100089.47;1720915;82;21128;-70
2021/12/09 00:51:49;;;;;;;13.30;7.90;;;;;;;1.17;95.79;100090.56;1719434;82;21529;-69
2021/12/09 00:54:15;;;;;;;11.30;7.50;;;;;;;1.17;95.79;100097.14;1711258;82;21018;-68
2021/12/09 00:56:42;;;;;;;10.10;7.00;;;;;;;1.21;95.81;100096.73;1713656;82;21978;-69
2021/12/09 00:59:09;;;;;;;11.35;7.65;;;;;;;1.23;95.81;100096.83;1708473;82;21544;-68
2021/12/09 01:01:36;;;;;;;11.22;7.30;;;;;;;1.23;95.82;100095.52;1703395;84;21529;-68
2021/12/09 01:04:04;;;;;;;10.55;6.87;;;;;;;1.26;95.81;100093.80;1702887;84;20983;-68
2021/12/09 01:06:30;;;;;;;10.90;7.30;;;;;;;1.26;95.76;100091.16;1702973;84;21160;-68
2021/12/09 01:08:58;;;;;;;9.78;6.30;;;;;;;1.27;95.73;100097.23;1702899;84;21107;-69
2021/12/09 01:11:24;;;;;;;9.65;6.05;;;;;;;1.25;95.72;100091.35;1703003;84;21645;-69
2021/12/09 01:13:51;;;;;;;10.43;6.92;;;;;;;1.22;95.69;100089.13;1703300;84;20931;-68
2021/12/09 01:16:18;;;;;;;10.80;7.33;;;;;;;1.17;95.69;100093.20;1702938;82;21109;-68
2021/12/09 01:18:45;;;;;;;9.83;7.08;;;;;;;1.16;95.73;100089.47;1731518;82;21153;-68
2021/12/09 01:21:11;;;;;;;9.15;6.60;;;;;;;1.16;95.77;100092.91;1732270;82;21193;-69
2021/12/09 01:23:39;;;;;;;10.15;6.78;;;;;;;1.16;95.76;100091.59;1730692;82;21025;-68
2021/12/09 01:26:07;;;;;;;10.58;7.10;;;;;;;1.13;95.76;100092.52;1732332;82;21466;-68
2021/12/09 01:29:01;;;;;;;10.93;7.37;;;;;;;1.10;95.78;100096.36;1732250;82;20971;-68
2021/12/09 01:31:06;;;;;;;10.43;6.35;;;;;;;1.08;95.82;100100.20;1719321;81;21575;-69
2021/12/09 01:33:34;;;;;;;10.00;7.12;;;;;;;1.06;95.88;100104.87;1703069;84;21081;-69
2021/12/09 01:36:01;;;;;;;10.35;5.92;;;;;;;1.07;95.93;100096.77;1703367;82;21468;-69
2021/12/09 01:38:31;;;;;;;9.60;7.22;;;;;;;1.07;95.96;100100.71;1704547;82;21073;-68
2021/12/09 01:40:56;;;;;;;8.68;5.58;;;;;;;1.07;96.01;100102.54;1707099;82;21644;-68
2021/12/09 01:43:23;;;;;;;9.50;6.05;;;;;;;1.07;96.05;100109.92;1731260;82;20994;-68
2021/12/09 01:46:08;;;;;;;9.63;6.35;;;;;;;1.07;96.05;100105.97;1728968;82;21148;-69
2021/12/09 01:48:37;;;;;;;9.23;5.80;;;;;;;1.06;96.04;100105.68;1715548;82;20963;-68
2021/12/09 01:51:04;;;;;;;9.38;5.87;;;;;;;1.06;96.07;100112.77;1702813;84;20990;-68
2021/12/09 01:53:31;;;;;;;8.40;6.00;;;;;;;1.06;96.08;100108.31;1730307;82;21042;-68
2021/12/09 01:56:04;;;;;;;9.30;5.22;;;;;;;1.03;96.09;100106.60;1732299;82;21034;-68
2021/12/09 01:58:32;;;;;;;8.90;5.50;;;;;;;1.02;96.10;100103.17;1732600;82;21801;-68
2021/12/09 02:00:59;;;;;;;8.80;6.10;;;;;;;1.00;96.15;100107.81;1732310;82;21002;-67
2021/12/09 02:03:26;;;;;;;8.65;5.10;;;;;;;0.98;96.18;100105.08;1732019;82;21085;-68
2021/12/09 02:05:54;;;;;;;7.97;5.15;;;;;;;1.00;96.24;100102.55;1732198;82;21042;-67
2021/12/09 02:08:21;;;;;;;8.13;5.47;;;;;;;1.01;96.23;100108.11;1683549;83;21070;-67
2021/12/09 02:10:48;;;;;;;7.47;4.90;;;;;;;1.01;96.22;100108.11;1713211;82;21108;-67
2021/12/09 02:13:15;;;;;;;8.28;5.50;;;;;;;1.02;96.23;100117.63;1703138;84;21580;-68
2021/12/09 02:15:42;;;;;;;8.33;5.25;;;;;;;1.03;96.22;100119.75;1702840;84;21025;-69
2021/12/09 02:18:11;;;;;;;7.80;5.65;;;;;;;1.05;96.26;100124.28;1702958;84;21105;-67
2021/12/09 02:20:40;;;;;;;8.30;5.35;;;;;;;1.06;96.27;100124.09;1703024;84;21070;-68
2021/12/09 02:23:11;;;;;;;8.05;5.05;;;;;;;1.07;96.27;100127.02;1643238;85;21074;-68
2021/12/09 02:25:44;;;;;;;7.33;5.12;;;;;;;1.07;96.28;100125.70;1702919;84;21648;-68
2021/12/09 02:28:14;;;;;;;8.28;5.03;;;;;;;1.09;96.25;100126.83;1693130;83;20987;-68
2021/12/09 02:30:42;;;;;;;7.03;4.65;;;;;;;1.07;96.07;100120.95;1692726;83;21011;-68
2021/12/09 02:33:08;;;;;;;7.17;5.03;;;;;;;1.11;96.23;100130.04;1685036;84;21437;-67
2021/12/09 02:35:36;;;;;;;6.42;4.50;;;;;;;1.11;96.20;100133.47;1692696;84;21972;-67
2021/12/09 02:38:03;;;;;;;7.42;4.90;;;;;;;1.12;96.18;100139.05;1694112;83;21038;-68
2021/12/09 02:40:33;;;;;;;6.97;4.87;;;;;;;1.13;96.16;100143.80;1692742;84;21026;-68
2021/12/09 02:43:00;;;;;;;7.35;5.08;;;;;;;1.14;96.09;100142.27;1693755;82;21062;-69
2021/12/09 02:45:26;;;;;;;7.53;5.40;;;;;;;1.13;96.06;100148.55;1699378;82;21082;-69
2021/12/09 02:47:53;;;;;;;6.72;4.90;;;;;;;1.15;96.09;100149.65;1693009;84;21148;-69
2021/12/09 02:50:19;;;;;;;6.58;4.35;;;;;;;1.15;96.09;100147.86;1698302;83;21521;-69
2021/12/09 02:52:48;;;;;;;7.42;5.10;;;;;;;1.19;96.07;100152.70;1722062;83;20983;-68
2021/12/09 02:55:15;;;;;;;7.62;4.85;;;;;;;1.16;95.99;100152.61;1721656;83;21054;-68
2021/12/09 02:57:42;;;;;;;8.33;5.28;;;;;;;1.14;96.00;100150.16;1722034;83;21541;-68
2021/12/09 03:00:11;;;;;;;7.42;4.92;;;;;;;1.13;95.97;100151.70;1721584;83;21137;-69
2021/12/09 03:02:38;;;;;;;6.58;4.12;;;;;;;1.12;95.97;100157.47;1721694;83;21446;-68
2021/12/09 03:05:06;;;;;;;7.03;5.05;;;;;;;1.13;95.97;100160.91;1713567;83;21122;-68
2021/12/09 03:07:37;;;;;;;7.62;5.03;;;;;;;1.11;95.97;100159.78;1721874;83;21023;-68
2021/12/09 03:10:19;;;;;;;6.70;4.70;;;;;;;1.13;95.93;100160.91;1721584;83;21156;-68
2021/12/09 03:12:43;;;;;;;7.85;5.40;;;;;;;1.12;95.88;100162.73;1721299;83;21213;-68
2021/12/09 03:15:10;;;;;;;8.15;5.30;;;;;;;1.11;95.89;100163.72;1721656;83;21035;-68
2021/12/09 03:17:39;;;;;;;8.95;6.03;;;;;;;1.10;95.85;100156.05;1721871;83;21030;-68
2021/12/09 03:20:09;;;;;;;8.53;6.05;;;;;;;1.08;95.86;100153.61;1721586;83;21212;-68
2021/12/09 03:22:37;;;;;;;8.65;5.30;;;;;;;1.10;95.91;100155.53;1721806;83;20968;-68
2021/12/09 03:25:07;;;;;;;8.60;5.40;;;;;;;1.12;95.88;100154.03;1721551;83;21113;-68
2021/12/09 03:27:35;;;;;;;7.22;5.40;;;;;;;1.12;95.85;100163.24;1721799;83;21016;-68
2021/12/09 03:30:02;;;;;;;8.50;5.72;;;;;;;1.12;95.87;100159.30;1721606;83;21070;-68
2021/12/09 03:32:28;;;;;;;9.15;6.05;;;;;;;1.11;95.85;100160.28;1722031;82;21059;-68
2021/12/09 03:34:55;;;;;;;10.18;6.55;;;;;;;1.10;95.84;100160.80;1721806;83;21624;-68
2021/12/09 03:37:24;;;;;;;7.95;5.37;;;;;;;1.10;95.85;100159.48;1721915;83;22390;-68
2021/12/09 03:39:51;;;;;;;8.70;5.75;;;;;;;1.14;95.88;100157.25;1721769;83;21097;-68
2021/12/09 03:42:21;;;;;;;9.35;6.15;;;;;;;1.15;95.85;100157.55;1721746;83;21591;-68
2021/12/09 03:44:49;;;;;;;9.05;5.70;;;;;;;1.15;95.82;100166.75;1721859;83;20959;-68
2021/12/09 03:47:18;;;;;;;9.10;6.47;;;;;;;1.18;95.81;100167.66;1721724;83;21054;-67
2021/12/09 03:49:45;;;;;;;8.68;6.10;;;;;;;1.16;95.78;100163.93;1721638;83;21132;-68
2021/12/09 03:52:13;;;;;;;8.78;6.05;;;;;;;1.18;95.80;100159.77;1721613;83;21121;-69
2021/12/09 03:54:41;;;;;;;10.20;6.55;;;;;;;1.18;95.72;100162.39;1721746;83;20967;-68
2021/12/09 03:57:08;;;;;;;9.25;6.05;;;;;;;1.15;95.72;100163.64;1721712;83;20975;-68
2021/12/09 03:59:35;;;;;;;10.23;6.53;;;;;;;1.16;95.69;100172.33;1721770;83;21443;-68
2021/12/09 04:02:01;;;;;;;10.40;7.37;;;;;;;1.14;95.65;100169.09;1722043;83;21794;-68
2021/12/09 04:04:29;;;;;;;10.23;6.97;;;;;;;1.13;95.68;100168.28;1721854;83;21518;-68
2021/12/09 04:06:56;;;;;;;12.45;8.45;;;;;;;1.14;95.67;100166.45;1721673;83;21089;-68
2021/12/09 04:09:22;;;;;;;11.80;6.97;;;;;;;1.15;95.68;100171.53;1721708;83;21113;-68
2021/12/09 04:11:51;;;;;;;11.40;7.70;;;;;;;1.17;95.69;100162.91;1721624;83;20976;-68
2021/12/09 04:14:19;;;;;;;12.13;7.37;;;;;;;1.16;95.59;100171.82;1721557;83;21125;-68
2021/12/09 04:16:47;;;;;;;11.20;7.80;;;;;;;1.14;95.61;100169.89;1721766;83;21003;-68
2021/12/09 04:19:14;;;;;;;12.05;8.35;;;;;;;1.14;95.62;100167.27;1721635;83;21078;-67
2021/12/09 04:21:41;;;;;;;10.72;7.40;;;;;;;1.15;95.63;100170.22;1721862;83;21093;-67
2021/12/09 04:24:09;;;;;;;11.05;7.87;;;;;;;1.17;95.64;100174.75;1721691;83;21082;-68
2021/12/09 04:26:39;;;;;;;11.83;7.85;;;;;;;1.19;95.62;100178.50;1721582;82;21189;-68
2021/12/09 04:29:07;;;;;;;11.70;7.58;;;;;;;1.19;95.61;100177.70;1721616;83;20974;-68
2021/12/09 04:31:34;;;;;;;10.35;6.85;;;;;;;1.22;95.60;100187.78;1721831;82;20982;-68
2021/12/09 04:34:01;;;;;;;10.88;7.53;;;;;;;1.22;95.54;100189.94;1721672;83;21023;-68
2021/12/09 04:36:27;;;;;;;12.95;8.05;;;;;;;1.25;95.52;100191.33;1721721;83;21081;-68
2021/12/09 04:38:54;;;;;;;10.08;6.42;;;;;;;1.24;95.53;100196.30;1721865;83;21802;-68
2021/12/09 04:41:21;;;;;;;10.48;7.00;;;;;;;1.25;95.59;100204.48;1721576;83;21006;-68
2021/12/09 04:43:49;;;;;;;12.00;6.97;;;;;;;1.23;95.56;100196.00;1721649;83;21136;-68
2021/12/09 04:46:16;;;;;;;10.00;6.85;;;;;;;1.21;95.52;100198.02;1721714;83;21035;-68
2021/12/09 04:48:43;;;;;;;9.00;6.12;;;;;;;1.21;95.55;100204.59;1704795;83;20994;-67
2021/12/09 04:51:11;;;;;;;11.57;7.65;;;;;;;1.20;95.55;100195.89;1692789;84;21234;-67
2021/12/09 04:53:39;;;;;;;11.88;7.12;;;;;;;1.18;95.52;100201.86;1692735;83;21078;-67
2021/12/09 04:56:05;;;;;;;11.93;7.92;;;;;;;1.22;95.57;100206.20;1692859;84;21085;-67
2021/12/09 04:58:32;;;;;;;10.80;6.80;;;;;;;1.21;95.55;100205.39;1692903;84;21018;-67
2021/12/09 05:01:00;;;;;;;14.23;8.50;;;;;;;1.24;95.58;100206.81;1692659;84;21105;-68
2021/12/09 05:03:29;;;;;;;12.47;7.75;;;;;;;1.25;95.56;100214.52;1692805;83;21141;-67
2021/12/09 05:05:56;;;;;;;12.30;8.08;;;;;;;1.27;95.57;100218.25;1692811;84;21081;-68
2021/12/09 05:08:28;;;;;;;13.28;8.33;;;;;;;1.24;95.52;100226.03;1692744;84;21010;-67
2021/12/09 05:11:08;;;;;;;12.63;7.22;;;;;;;1.25;95.54;100224.21;1692689;84;21050;-67
2021/12/09 05:13:35;;;;;;;14.05;8.60;;;;;;;1.26;95.59;100224.02;1692858;83;21033;-68
2021/12/09 05:16:02;;;;;;;14.00;7.53;;;;;;;1.27;95.57;100227.46;1692681;84;21174;-68
2021/12/09 05:18:31;;;;;;;13.80;8.35;;;;;;;1.26;95.57;100221.91;1692761;84;21050;-68
2021/12/09 05:20:58;;;;;;;13.18;8.05;;;;;;;1.28;95.58;100231.70;1692557;84;21078;-68
2021/12/09 05:23:25;;;;;;;11.75;8.00;;;;;;;1.31;95.56;100231.30;1692980;84;21087;-67
2021/12/09 05:25:52;;;;;;;13.03;7.75;;;;;;;1.33;95.57;100233.22;1692618;84;20999;-68
2021/12/09 05:28:19;;;;;;;9.80;6.97;;;;;;;1.35;95.56;100237.76;1692841;84;23319;-68
2021/12/09 05:33:33;;;;;;;11.70;7.70;;;;;;;1.33;95.43;100235.86;1692767;84;21023;-68
2021/12/09 05:36:00;;;;;;;13.22;8.28;;;;;;;1.34;95.43;100244.05;1692766;84;20991;-67
2021/12/09 05:38:27;;;;;;;12.05;7.70;;;;;;;1.33;95.43;100235.86;1692866;84;21030;-67
2021/12/09 05:40:54;;;;;;;12.13;7.35;;;;;;;1.32;95.42;100241.63;1692787;84;21946;-68
2021/12/09 05:43:22;;;;;;;11.93;7.37;;;;;;;1.32;95.42;100246.09;1692584;83;21514;-68
2021/12/09 05:45:50;;;;;;;12.28;7.65;;;;;;;1.32;95.43;100248.21;1692855;84;21620;-68
2021/12/09 05:48:17;;;;;;;13.68;8.30;;;;;;;1.33;95.42;100250.33;1692816;83;21046;-68
2021/12/09 05:50:44;;;;;;;10.90;7.08;;;;;;;1.32;95.42;100251.35;1692748;84;21019;-67
2021/12/09 05:53:13;;;;;;;12.45;7.85;;;;;;;1.33;95.44;100255.59;1692941;84;21529;-68
2021/12/09 05:55:43;;;;;;;13.98;8.73;;;;;;;1.30;95.39;100256.80;1692842;84;21085;-68
2021/12/09 05:58:08;;;;;;;13.18;8.13;;;;;;;1.29;95.44;100259.65;1693455;83;21562;-67
2021/12/09 06:00:35;;;;;;;12.10;8.08;;;;;;;1.27;95.46;100269.05;1718786;83;20971;-68
2021/12/09 06:03:02;;;;;;;12.35;7.22;;;;;;;1.29;95.51;100276.24;1721838;83;21067;-68
2021/12/09 06:05:28;;;;;;;11.95;8.13;;;;;;;1.31;95.54;100276.02;1716305;82;21751;-68
2021/12/09 06:07:55;;;;;;;12.03;7.85;;;;;;;1.32;95.55;100281.09;1692874;84;21102;-68
2021/12/09 06:10:22;;;;;;;14.60;8.00;;;;;;;1.33;95.56;100294.55;1692817;84;21565;-69
2021/12/09 06:12:49;;;;;;;13.32;8.08;;;;;;;1.34;95.62;100292.72;1692705;84;21062;-69
2021/12/09 06:15:16;;;;;;;14.93;8.73;;;;;;;1.35;95.60;100296.97;1692591;84;21093;-68
2021/12/09 06:17:43;;;;;;;15.70;8.58;;;;;;;1.37;95.66;100296.27;1710319;83;21156;-68
2021/12/09 06:20:10;;;;;;;14.15;8.83;;;;;;;1.41;95.68;100302.73;1693874;82;21072;-68
2021/12/09 06:22:38;;;;;;;14.03;8.33;;;;;;;1.45;95.69;100305.29;1686930;85;21100;-68
2021/12/09 06:25:07;;;;;;;14.90;7.80;;;;;;;1.47;95.66;100311.65;1686807;85;21084;-68
2021/12/09 06:27:33;;;;;;;13.45;7.78;;;;;;;1.47;95.67;100318.23;1687112;85;21083;-67
2021/12/09 06:30:00;;;;;;;17.00;8.75;;;;;;;1.48;95.62;100319.84;1686842;85;21129;-68
2021/12/09 06:32:27;;;;;;;15.05;9.28;;;;;;;1.47;95.60;100322.98;1686987;84;21041;-68
2021/12/09 06:34:54;;;;;;;15.08;9.15;;;;;;;1.50;95.62;100325.21;1699749;83;20993;-68
2021/12/09 06:37:21;;;;;;;16.95;10.08;;;;;;;1.52;95.61;100327.15;1721709;83;21013;-68
2021/12/09 06:39:48;;;;;;;17.48;10.13;;;;;;;1.55;95.60;100332.01;1721238;83;21643;-68
2021/12/09 06:42:17;;;;;;;15.00;8.70;;;;;;;1.62;95.59;100332.81;1721676;83;21102;-68
2021/12/09 06:44:44;;;;;;;14.45;9.30;;;;;;;1.67;95.61;100332.70;1720293;82;21581;-68
2021/12/09 06:47:11;;;;;;;14.20;8.38;;;;;;;1.72;95.61;100332.40;1721779;83;21026;-68
2021/12/09 06:49:38;;;;;;;15.38;7.95;;;;;;;1.79;95.62;100338.97;1721588;83;21019;-68
2021/12/09 06:52:06;;;;;;;16.60;9.18;;;;;;;1.84;95.60;100338.67;1721742;83;21117;-68
2021/12/09 06:54:34;;;;;;;14.93;8.70;;;;;;;1.87;95.56;100340.06;1721724;83;21232;-68
2021/12/09 06:57:00;;;;;;;14.53;9.18;;;;;;;1.86;95.41;100341.09;1721513;83;21514;-68
2021/12/09 06:59:27;;;;;;;18.62;10.10;;;;;;;1.84;95.33;100349.20;1721750;83;21030;-68
2021/12/09 07:01:54;;;;;;;15.78;9.23;;;;;;;1.83;95.34;100338.86;1721745;83;20983;-69
2021/12/09 07:04:20;;;;;;;14.33;8.88;;;;;;;1.85;95.30;100342.91;1721825;83;21275;-69
2021/12/09 07:06:47;;;;;;;16.30;9.70;;;;;;;1.85;95.24;100346.87;1721785;83;21882;-67
2021/12/09 07:09:14;;;;;;;16.37;9.23;;;;;;;1.80;95.08;100351.12;1721754;83;21082;-67
2021/12/09 07:11:44;;;;;;;18.95;10.25;;;;;;;1.79;95.14;100357.41;1721841;83;21066;-67
2021/12/09 07:14:10;;;;;;;14.73;9.03;;;;;;;1.77;95.18;100361.55;1722219;82;21617;-67
2021/12/09 07:16:37;;;;;;;17.27;9.98;;;;;;;1.79;95.23;100352.95;1721853;83;21065;-67
2021/12/09 07:19:04;;;;;;;12.85;8.15;;;;;;;1.77;95.13;100354.16;1721723;83;21159;-68
2021/12/09 07:21:31;;;;;;;18.23;10.10;;;;;;;1.73;95.08;100362.97;1721738;83;21580;-68
2021/12/09 07:23:57;;;;;;;15.60;8.30;;;;;;;1.70;95.10;100356.80;1722269;83;21027;-68
2021/12/09 07:26:23;;;;;;;17.12;9.60;;;;;;;1.71;95.18;100352.33;1721698;83;21277;-68
2021/12/09 07:28:50;;;;;;;16.25;9.70;;;;;;;1.70;95.17;100361.25;1722198;83;21002;-69
2021/12/09 07:31:17;;;;;;;14.90;9.15;;;;;;;1.71;95.21;100366.81;1721699;82;21166;-68
2021/12/09 07:33:44;;;;;;;18.17;10.25;;;;;;;1.74;95.31;100368.53;1721959;83;20991;-68
2021/12/09 07:36:11;;;;;;;15.25;9.98;;;;;;;1.75;95.30;100370.69;1721759;83;21011;-68
2021/12/09 07:38:40;;;;;;;15.35;9.73;;;;;;;1.78;95.33;100373.72;1721959;83;21102;-68
2021/12/09 07:41:07;;;;;;;14.47;8.53;;;;;;;1.80;95.28;100374.81;1721691;83;21019;-68
2021/12/09 07:43:33;;;;;;;16.37;9.55;;;;;;;1.81;95.30;100383.02;1719505;83;21104;-68
2021/12/09 07:46:00;;;;;;;16.23;9.30;;;;;;;1.80;95.25;100382.72;1721700;83;21597;-68
2021/12/09 07:48:27;;;;;;;15.78;8.98;;;;;;;1.80;95.29;100380.08;1721981;83;21098;-68
2021/12/09 07:50:53;;;;;;;15.25;9.40;;;;;;;1.78;95.24;100385.56;1721730;83;21541;-68
2021/12/09 07:53:22;;;;;;;15.75;9.98;;;;;;;1.80;95.30;100384.03;1721832;83;21006;-68
2021/12/09 07:55:51;;;;;;;14.00;8.45;;;;;;;1.81;95.34;100387.80;1721874;83;21133;-68
2021/12/09 07:58:18;;;;;;;15.48;9.28;;;;;;;1.81;95.34;100386.48;1721701;83;21023;-68
2021/12/09 08:00:44;;;;;;;16.10;11.15;;;;;;;1.80;95.29;100388.79;1721779;83;20955;-68
2021/12/09 08:03:11;;;;;;;14.93;9.13;;;;;;;1.79;95.31;100396.39;1721764;83;21023;-68
2021/12/09 08:05:42;;;;;;;16.15;10.30;;;;;;;1.77;95.29;100401.55;1721603;83;21071;-68
2021/12/09 08:08:11;;;;;;;15.03;9.98;;;;;;;1.77;95.34;100398.41;1721739;83;21755;-69
2021/12/09 08:10:38;;;;;;;15.80;9.65;;;;;;;1.81;95.36;100398.33;1721751;83;21094;-69
2021/12/09 08:13:07;;;;;;;16.02;8.98;;;;;;;1.85;95.37;100402.17;1721747;83;21074;-68
2021/12/09 08:15:38;;;;;;;18.67;9.95;;;;;;;1.90;95.35;100409.96;1721766;83;21050;-67
2021/12/09 08:20:50;;;;;;;15.58;9.25;;;;;;;1.91;95.30;100415.05;1722038;83;21140;-67
2021/12/09 08:23:16;;;;;;;16.90;10.63;;;;;;;1.93;95.34;100416.95;1721692;83;21065;-68
2021/12/09 08:25:46;;;;;;;16.42;9.30;;;;;;;1.91;95.23;100412.89;1721552;82;21082;-67
2021/12/09 08:28:13;;;;;;;15.10;9.35;;;;;;;1.89;95.22;100409.16;1721697;83;21074;-67
2021/12/09 08:30:41;;;;;;;15.75;9.73;;;;;;;1.87;95.15;100415.12;1721817;82;21053;-68
2021/12/09 08:33:08;;;;;;;15.75;9.25;;;;;;;1.86;95.20;100417.46;1721776;83;21127;-68
2021/12/09 08:35:35;;;;;;;15.25;9.15;;;;;;;1.85;95.18;100418.48;1721841;83;20944;-68
2021/12/09 08:38:04;;;;;;;17.25;11.35;;;;;;;1.80;95.13;100418.27;1721690;83;21038;-69
2021/12/09 08:40:32;;;;;;;16.02;9.63;;;;;;;1.78;95.17;100418.48;1721952;83;21533;-68
2021/12/09 08:42:59;;;;;;;18.37;10.32;;;;;;;1.78;95.21;100421.62;1707141;83;21086;-68
2021/12/09 08:45:26;;;;;;;18.00;10.55;;;;;;;1.78;95.25;100413.73;1692710;84;22343;-68
2021/12/09 08:47:52;;;;;;;16.62;10.55;;;;;;;1.79;95.29;100417.97;1692767;84;20983;-69
2021/12/09 08:50:23;;;;;;;14.53;9.28;;;;;;;1.79;95.30;100417.46;1692656;84;21006;-68
2021/12/09 08:52:51;;;;;;;20.00;11.05;;;;;;;1.78;95.28;100417.17;1692829;84;21072;-68
2021/12/09 08:55:21;;;;;;;16.35;10.20;;;;;;;1.79;95.32;100411.39;1692520;84;21062;-68
2021/12/09 08:57:48;;;;;;;17.67;10.68;;;;;;;1.81;95.34;100414.13;1693146;84;21117;-68
2021/12/09 09:00:17;;;;;;;16.95;10.13;;;;;;;1.81;95.28;100414.61;1692627;84;21046;-67
2021/12/09 09:02:47;;;;;;;18.62;11.18;;;;;;;1.81;95.34;100411.50;1692949;84;21109;-68
2021/12/09 09:05:14;;;;;;;17.05;10.03;;;;;;;1.83;95.35;100408.14;1692671;84;21039;-69
2021/12/09 09:07:44;;;;;;;17.35;11.40;;;;;;;1.85;95.39;100410.07;1692658;84;21066;-69
2021/12/09 09:10:11;;;;;;;17.60;10.90;;;;;;;1.88;95.40;100407.03;1692649;84;21136;-68
2021/12/09 09:12:37;;;;;;;17.75;11.78;;;;;;;1.95;95.46;100413.62;1693041;84;21494;-68
2021/12/09 09:15:10;;;;;;;15.13;9.28;;;;;;;1.97;95.42;100407.62;1692751;84;21168;-68
2021/12/09 09:17:37;;;;;;;16.50;10.30;;;;;;;1.99;95.41;100408.75;1715968;83;21474;-68
2021/12/09 09:20:07;;;;;;;15.35;9.68;;;;;;;1.97;95.27;100404.98;1721754;83;21059;-68
2021/12/09 09:22:35;;;;;;;18.00;10.95;;;;;;;1.94;95.28;100405.42;1721852;83;21728;-68
2021/12/09 09:25:05;;;;;;;17.37;10.90;;;;;;;1.88;95.23;100407.55;1720095;82;21145;-68
2021/12/09 09:27:33;;;;;;;15.45;9.70;;;;;;;1.88;95.29;100406.23;1719990;83;21514;-68
2021/12/09 09:29:59;;;;;;;16.05;10.23;;;;;;;1.88;95.33;100410.17;1692703;84;21011;-68
2021/12/09 09:32:26;;;;;;;16.82;9.20;;;;;;;1.90;95.32;100410.77;1692944;83;21533;-68
2021/12/09 09:34:54;;;;;;;15.35;9.33;;;;;;;1.89;95.32;100414.42;1692568;84;21180;-69
2021/12/09 09:37:22;;;;;;;15.32;10.08;;;;;;;1.88;95.27;100418.08;1693010;84;20979;-68
2021/12/09 09:39:48;;;;;;;14.80;9.00;;;;;;;1.87;95.30;100415.12;1692625;84;21061;-68
2021/12/09 09:44:47;;;;;;;15.68;9.63;;;;;;;1.90;95.35;100411.28;1692781;84;21549;-67
2021/12/09 09:47:16;;;;;;;17.10;10.13;;;;;;;1.95;95.44;100406.22;1693156;84;21181;-67
2021/12/09 09:49:42;;;;;;;16.12;9.65;;;;;;;1.98;95.39;100410.58;1692401;84;21107;-69
2021/12/09 09:52:11;;;;;;;15.43;10.18;;;;;;;1.98;95.32;100407.94;1692782;84;21109;-68
2021/12/09 09:54:39;;;;;;;15.23;9.70;;;;;;;1.99;95.35;100401.65;1692733;84;21011;-68
2021/12/09 09:57:07;;;;;;;15.08;9.50;;;;;;;1.98;95.30;100401.87;1692815;83;21153;-68
2021/12/09 09:59:36;;;;;;;15.98;9.90;;;;;;;1.96;95.30;100403.37;1692719;84;21137;-68
2021/12/09 10:02:03;;;;;;;16.90;10.13;;;;;;;1.95;95.29;100406.22;1692959;84;21051;-68
2021/12/09 10:07:01;;;;;;;18.15;11.18;;;;;;;1.99;95.40;100406.92;1692691;84;21121;-68
2021/12/09 10:09:28;;;;;;;17.98;11.45;;;;;;;1.97;95.30;100402.34;1692594;84;21087;-68
2021/12/09 10:11:59;;;;;;;16.42;10.03;;;;;;;1.98;95.35;100410.58;1693044;84;22048;-68
2021/12/09 10:14:35;;;;;;;18.48;11.00;;;;;;;2.02;95.43;100407.02;1692701;84;21093;-68
2021/12/09 10:17:13;;;;;;;20.05;11.83;;;;;;;2.06;95.47;100410.35;1692816;84;21057;-68
2021/12/09 10:20:04;;;;;;;16.80;10.93;;;;;;;2.06;95.40;100402.45;1692750;84;21066;-69
2021/12/09 10:22:34;;;;;;;16.90;11.35;;;;;;;2.10;95.43;100408.11;1693001;84;20974;-69
2021/12/09 10:25:03;;;;;;;16.48;10.38;;;;;;;2.13;95.43;100409.02;1692377;84;21761;-69
2021/12/09 10:27:34;;;;;;;14.83;9.85;;;;;;;2.17;95.40;100416.02;1692792;84;20971;-68
2021/12/09 10:30:18;;;;;;;15.80;9.45;;;;;;;2.22;95.40;100420.17;1692784;84;21196;-69
2021/12/09 10:32:44;;;;;;;16.30;10.13;;;;;;;2.20;95.30;100407.19;1692898;83;21140;-69
2021/12/09 10:35:18;;;;;;;16.57;10.05;;;;;;;2.18;95.24;100427.67;1692731;84;21407;-68
2021/12/09 10:37:49;;;;;;;16.17;9.70;;;;;;;2.11;95.15;100417.15;1692913;84;21849;-68
2021/12/09 10:40:26;;;;;;;15.93;9.58;;;;;;;2.08;95.14;100418.88;1693190;83;21106;-69
2021/12/09 10:42:58;;;;;;;15.78;9.78;;;;;;;2.06;95.11;100420.08;1692932;84;21061;-69
2021/12/09 10:45:28;;;;;;;16.20;10.78;;;;;;;2.04;95.15;100418.98;1693119;84;21140;-68
2021/12/09 10:56:10;;;;;;;15.38;9.58;;;;;;;2.11;95.37;100422.42;1709753;82;21577;-68
2021/12/09 10:58:41;;;;;;;21.37;11.43;;;;;;;2.15;95.30;100412.79;1702987;82;21492;-68
2021/12/09 11:01:11;;;;;;;15.95;10.78;;;;;;;2.13;95.23;100422.20;1692838;84;20967;-67
2021/12/09 11:03:42;;;;;;;19.60;12.30;;;;;;;2.15;95.26;100422.01;1692903;83;21050;-67
2021/12/09 11:06:14;;;;;;;15.93;10.70;;;;;;;2.13;95.20;100429.30;1692607;84;21050;-68
2021/12/09 11:08:53;;;;;;;17.27;11.00;;;;;;;2.13;95.27;100426.15;1693314;84;21046;-68
2021/12/09 11:11:32;;;;;;;16.55;10.38;;;;;;;2.15;95.21;100428.59;1692890;84;21163;-68
2021/12/09 11:14:17;;;;;;;15.70;10.20;;;;;;;2.15;95.22;100424.64;1712184;82;21058;-69
2021/12/09 11:16:50;;;;;;;15.50;9.13;;;;;;;2.14;95.20;100425.64;1721622;83;21184;-68
2021/12/09 11:19:35;;;;;;;17.17;10.63;;;;;;;2.17;95.27;100419.45;1713163;83;21003;-68
2021/12/09 11:22:10;;;;;;;16.35;9.85;;;;;;;2.18;95.24;100418.45;1722364;82;21553;-68
2021/12/09 11:24:43;;;;;;;19.35;11.22;;;;;;;2.24;95.30;100416.83;1717805;83;21095;-68
2021/12/09 11:27:17;;;;;;;17.30;11.10;;;;;;;2.23;95.24;100414.68;1722029;83;21455;-68
2021/12/09 11:29:50;;;;;;;16.75;10.45;;;;;;;2.25;95.23;100407.91;1716172;83;21189;-68
2021/12/09 11:32:32;;;;;;;15.00;9.65;;;;;;;2.24;95.20;100404.47;1692852;83;21133;-67
2021/12/09 11:35:05;;;;;;;17.10;10.90;;;;;;;2.23;95.13;100411.24;1693075;84;21555;-68
2021/12/09 11:40:30;;;;;;;16.67;10.40;;;;;;;2.19;95.13;100423.22;1711454;83;21229;-68
2021/12/09 11:43:00;;;;;;;15.20;9.88;;;;;;;2.17;95.14;100418.64;1722722;82;21577;-69
2021/12/09 11:45:30;;;;;;;14.83;9.98;;;;;;;2.17;95.15;100425.23;1721420;83;21565;-68
2021/12/09 11:47:57;;;;;;;15.50;10.03;;;;;;;2.18;95.19;100425.55;1722230;83;21078;-68
2021/12/09 11:50:31;;;;;;;15.25;9.65;;;;;;;2.15;95.18;100421.50;1721686;83;21046;-68
2021/12/09 11:53:00;;;;;;;19.15;11.83;;;;;;;2.11;95.17;100422.42;1721923;83;21509;-67